Time;durP1;ratioP1;P1;durP2;ratioP2;P2;SDS_P1;SDS_P2;PMS_P1;PMS_P2;Temp;Humidity;BMP_temperature;BMP_pressure;BME280_temperature;BME280_humidity;BME280_pressure;Samples;Min_cycle;Max_cycle;Signal;HPM_P1;HPM_P2
2024/01/04 00:00:38;;;;;;;3.83;1.77;;;9.90;1.00;;;;;;5088927;27;20513;-73
2024/01/04 00:03:06;;;;;;;2.40;1.70;;;9.90;1.00;;;;;;5093650;27;20970;-73
2024/01/04 00:05:32;;;;;;;4.40;1.63;;;9.90;1.00;;;;;;5091424;27;20532;-71
2024/01/04 00:07:59;;;;;;;1.73;1.10;;;9.90;1.00;;;;;;5090422;28;20494;-72
2024/01/04 00:10:26;;;;;;;4.87;1.40;;;9.90;1.00;;;;;;5091194;28;20515;-72
2024/01/04 00:12:53;;;;;;;3.10;1.43;;;9.90;1.00;;;;;;5089046;28;20502;-72
2024/01/04 00:15:20;;;;;;;3.00;1.50;;;9.90;1.00;;;;;;5089609;27;21185;-72
2024/01/04 00:17:48;;;;;;;4.70;1.20;;;9.90;1.00;;;;;;5091614;28;20501;-71
2024/01/04 00:20:15;;;;;;;2.03;1.40;;;9.90;1.00;;;;;;5092237;28;20541;-73
2024/01/04 00:22:42;;;;;;;2.67;1.47;;;9.90;1.00;;;;;;5092466;28;20455;-70
2024/01/04 00:25:09;;;;;;;4.07;1.10;;;9.90;1.00;;;;;;5092724;27;20463;-71
2024/01/04 00:27:36;;;;;;;4.00;1.50;;;9.90;1.00;;;;;;5066917;28;20460;-70
2024/01/04 00:30:04;;;;;;;3.57;1.33;;;9.90;1.00;;;;;;5086323;27;20587;-71
2024/01/04 00:32:30;;;;;;;3.20;1.30;;;9.80;1.00;;;;;;5071618;28;20975;-70
2024/01/04 00:34:59;;;;;;;3.83;1.37;;;9.90;1.00;;;;;;5070210;28;20917;-70
2024/01/04 00:37:26;;;;;;;3.53;1.70;;;9.80;1.00;;;;;;5078383;28;21364;-70
2024/01/04 00:39:53;;;;;;;2.03;1.13;;;9.80;1.00;;;;;;5068664;28;20563;-70
2024/01/04 00:42:19;;;;;;;3.10;1.40;;;9.80;1.00;;;;;;5079604;27;20458;-72
2024/01/04 00:44:46;;;;;;;4.37;1.60;;;9.80;1.00;;;;;;5089792;27;20534;-69
2024/01/04 00:47:13;;;;;;;2.97;1.10;;;9.80;1.00;;;;;;5089983;27;20877;-71
2024/01/04 00:49:40;;;;;;;4.87;1.83;;;9.80;1.00;;;;;;5090454;28;20565;-71
2024/01/04 00:52:09;;;;;;;2.30;1.23;;;9.80;1.00;;;;;;5086523;28;20458;-70
2024/01/04 00:54:35;;;;;;;2.93;1.60;;;9.80;1.00;;;;;;5091209;28;20482;-71
2024/01/04 00:57:02;;;;;;;2.60;1.40;;;9.80;1.00;;;;;;5083551;28;20550;-71
2024/01/04 00:59:29;;;;;;;2.53;1.23;;;9.80;1.00;;;;;;5090529;28;20466;-70
2024/01/04 01:01:56;;;;;;;2.43;1.10;;;9.70;1.00;;;;;;5092213;27;20539;-70
2024/01/04 01:04:23;;;;;;;4.17;1.20;;;9.80;1.00;;;;;;5091321;28;20463;-70
2024/01/04 01:06:50;;;;;;;2.13;1.00;;;9.80;1.00;;;;;;5089992;27;20548;-71
2024/01/04 01:09:18;;;;;;;1.60;1.37;;;9.80;1.00;;;;;;5090164;27;20474;-74
2024/01/04 01:11:45;;;;;;;2.03;1.13;;;9.70;1.00;;;;;;5090509;27;20475;-73
2024/01/04 01:14:12;;;;;;;2.67;1.30;;;9.80;1.00;;;;;;5090519;27;20487;-71
2024/01/04 01:16:39;;;;;;;1.70;1.27;;;9.80;1.00;;;;;;5090503;27;20450;-71
2024/01/04 01:19:07;;;;;;;4.57;1.33;;;9.80;1.00;;;;;;5092407;28;20495;-69
2024/01/04 01:21:34;;;;;;;2.10;1.20;;;9.90;1.00;;;;;;5079748;27;20552;-70
2024/01/04 01:24:01;;;;;;;2.50;1.00;;;9.90;1.00;;;;;;5093760;27;20462;-71
2024/01/04 01:26:29;;;;;;;2.67;1.00;;;9.90;1.00;;;;;;5093118;27;20482;-71
2024/01/04 01:28:56;;;;;;;4.10;1.50;;;9.90;1.00;;;;;;5088713;27;20474;-73
2024/01/04 01:31:23;;;;;;;2.50;0.90;;;9.90;1.00;;;;;;5090897;27;20533;-73
2024/01/04 01:33:50;;;;;;;1.47;0.93;;;9.90;1.00;;;;;;5093629;27;20798;-72
2024/01/04 01:36:17;;;;;;;1.20;1.10;;;9.90;1.00;;;;;;5083140;27;21169;-73
2024/01/04 01:38:44;;;;;;;2.87;1.13;;;9.90;1.00;;;;;;5085538;28;20974;-72
2024/01/04 01:41:11;;;;;;;2.70;1.77;;;9.90;1.00;;;;;;5093401;28;22078;-72
2024/01/04 01:43:39;;;;;;;1.93;1.30;;;9.90;1.00;;;;;;5094119;28;20498;-72
2024/01/04 01:46:06;;;;;;;2.10;1.03;;;9.90;1.00;;;;;;5093892;28;20569;-71
2024/01/04 01:48:34;;;;;;;3.67;1.07;;;9.90;1.00;;;;;;5090149;27;21043;-72
2024/01/04 01:51:01;;;;;;;1.60;1.00;;;9.90;1.00;;;;;;5093521;27;20457;-70
2024/01/04 01:53:28;;;;;;;1.60;1.03;;;9.90;1.00;;;;;;5089685;27;20477;-72
2024/01/04 01:55:55;;;;;;;2.10;0.90;;;10.00;1.00;;;;;;5079545;27;20433;-71
2024/01/04 01:58:22;;;;;;;1.93;0.80;;;10.00;1.00;;;;;;5072974;27;21046;-71
2024/01/04 02:00:51;;;;;;;1.80;1.00;;;10.00;1.00;;;;;;5080318;27;20545;-76
2024/01/04 02:03:18;;;;;;;1.17;0.97;;;10.00;1.00;;;;;;5074604;28;20556;-72
2024/01/04 02:05:45;;;;;;;2.00;1.10;;;10.00;1.00;;;;;;5086843;27;20475;-73
2024/01/04 02:08:12;;;;;;;1.27;0.87;;;10.00;1.00;;;;;;5090522;27;20478;-72
2024/01/04 02:10:39;;;;;;;1.60;1.00;;;10.00;1.00;;;;;;5092842;27;20549;-72
2024/01/04 02:13:06;;;;;;;1.57;0.80;;;10.00;1.00;;;;;;5092681;27;20557;-72
2024/01/04 02:15:33;;;;;;;1.93;1.27;;;9.90;1.00;;;;;;5092843;28;21179;-72
2024/01/04 02:18:01;;;;;;;1.50;1.23;;;9.90;1.00;;;;;;5094806;28;20474;-71
2024/01/04 02:20:28;;;;;;;1.90;0.90;;;9.90;1.00;;;;;;5094298;27;20546;-73
2024/01/04 02:22:56;;;;;;;1.80;1.37;;;9.70;1.00;;;;;;5094258;28;20467;-72
2024/01/04 02:25:23;;;;;;;3.83;1.43;;;9.70;1.00;;;;;;5089164;27;20860;-71
2024/01/04 02:27:50;;;;;;;1.30;1.10;;;9.60;1.00;;;;;;5091523;27;20574;-72
2024/01/04 02:30:17;;;;;;;1.43;0.80;;;9.50;1.00;;;;;;5093251;27;20537;-72
2024/01/04 02:32:45;;;;;;;1.53;1.00;;;9.40;1.00;;;;;;5086612;27;20495;-71
2024/01/04 02:35:12;;;;;;;1.87;1.10;;;9.40;1.00;;;;;;5091684;27;20468;-69
2024/01/04 02:37:39;;;;;;;1.27;1.17;;;9.30;1.00;;;;;;5093654;27;20516;-68
2024/01/04 02:40:08;;;;;;;2.87;1.00;;;9.30;1.00;;;;;;5092063;28;20549;-68
2024/01/04 02:42:35;;;;;;;1.20;0.90;;;9.30;1.00;;;;;;5093406;28;20548;-68
2024/01/04 02:45:02;;;;;;;1.80;0.90;;;9.30;1.00;;;;;;5092955;28;20517;-68
2024/01/04 02:47:29;;;;;;;1.50;1.23;;;9.40;1.00;;;;;;5094539;27;20831;-69
2024/01/04 02:49:56;;;;;;;1.80;0.80;;;9.40;1.00;;;;;;5092901;28;20546;-72
2024/01/04 02:52:23;;;;;;;1.40;0.83;;;9.40;1.00;;;;;;5092224;27;20530;-68
2024/01/04 02:54:50;;;;;;;1.93;0.90;;;9.40;1.00;;;;;;5093972;28;20495;-68
2024/01/04 02:57:18;;;;;;;2.07;0.80;;;9.50;1.00;;;;;;5093017;27;21351;-71
2024/01/04 02:59:45;;;;;;;1.87;1.20;;;9.50;1.00;;;;;;5092691;27;20462;-68
2024/01/04 03:02:12;;;;;;;1.87;0.80;;;9.40;1.00;;;;;;5090997;27;20982;-68
2024/01/04 03:04:42;;;;;;;2.90;1.00;;;9.40;1.00;;;;;;5090077;27;20530;-69
2024/01/04 03:07:09;;;;;;;2.40;1.00;;;9.40;1.00;;;;;;5076622;28;20479;-68
2024/01/04 03:09:36;;;;;;;2.93;1.10;;;9.30;1.00;;;;;;5075034;27;20499;-73
2024/01/04 03:12:03;;;;;;;1.30;0.80;;;9.20;1.00;;;;;;5080191;28;20462;-69
2024/01/04 03:14:32;;;;;;;2.40;1.00;;;9.00;1.00;;;;;;5092521;27;20442;-68
2024/01/04 03:16:58;;;;;;;2.80;0.80;;;8.80;1.00;;;;;;5090909;28;20509;-68
2024/01/04 03:19:25;;;;;;;3.80;0.90;;;8.70;1.00;;;;;;5090662;28;20970;-69
2024/01/04 03:21:52;;;;;;;1.03;0.70;;;8.60;1.00;;;;;;5094103;27;20842;-70
2024/01/04 03:24:19;;;;;;;1.00;0.80;;;8.50;1.00;;;;;;5091863;27;20455;-69
2024/01/04 03:26:46;;;;;;;2.73;1.00;;;8.50;1.00;;;;;;5090846;27;20524;-68
2024/01/04 03:29:13;;;;;;;1.80;0.90;;;8.50;1.00;;;;;;5091469;28;21236;-68
2024/01/04 03:31:41;;;;;;;2.10;0.90;;;8.50;1.00;;;;;;5092114;27;20905;-68
2024/01/04 03:34:08;;;;;;;3.13;1.20;;;8.50;1.00;;;;;;5092425;28;20548;-68
2024/01/04 03:36:35;;;;;;;2.90;1.00;;;8.50;1.00;;;;;;5092442;28;20960;-69
2024/01/04 03:39:02;;;;;;;2.23;0.90;;;8.50;1.00;;;;;;5093430;28;20537;-69
2024/01/04 03:41:29;;;;;;;2.83;1.13;;;8.50;1.00;;;;;;5090397;27;20486;-68
2024/01/04 03:43:55;;;;;;;2.50;1.00;;;8.50;1.00;;;;;;5090480;27;20451;-72
2024/01/04 03:46:22;;;;;;;1.37;0.67;;;8.50;1.00;;;;;;5089645;27;20499;-73
2024/01/04 03:48:51;;;;;;;2.27;0.90;;;8.50;1.00;;;;;;5088325;27;20454;-72
2024/01/04 03:51:18;;;;;;;1.03;0.90;;;8.50;1.00;;;;;;5078336;27;20868;-72
2024/01/04 03:53:45;;;;;;;3.27;1.30;;;8.50;1.00;;;;;;5074334;28;20451;-71
2024/01/04 03:56:12;;;;;;;1.37;0.80;;;8.50;1.00;;;;;;5074231;28;20565;-72
2024/01/04 03:58:39;;;;;;;1.60;0.90;;;8.40;1.00;;;;;;5071368;28;20869;-72
2024/01/04 04:01:06;;;;;;;1.23;0.87;;;8.40;1.00;;;;;;5081018;28;20561;-72
2024/01/04 04:03:33;;;;;;;2.23;0.93;;;8.40;1.00;;;;;;5088648;28;20470;-72
2024/01/04 04:06:07;;;;;;;1.13;0.93;;;8.40;1.00;;;;;;5090024;28;20671;-72
2024/01/04 04:08:33;;;;;;;1.80;0.90;;;8.40;1.00;;;;;;5088485;28;20453;-72
2024/01/04 04:11:00;;;;;;;1.10;0.67;;;8.40;1.00;;;;;;5092061;28;20456;-72
2024/01/04 04:13:27;;;;;;;1.43;0.90;;;8.40;1.00;;;;;;5089623;27;20729;-74
2024/01/04 04:15:54;;;;;;;1.50;0.90;;;8.40;1.00;;;;;;5090911;28;20473;-72
2024/01/04 04:18:21;;;;;;;2.30;0.90;;;8.30;1.00;;;;;;5090271;27;20456;-71
2024/01/04 04:20:48;;;;;;;6.50;1.30;;;8.30;1.00;;;;;;5092101;27;20546;-73
2024/01/04 04:23:16;;;;;;;1.27;0.90;;;8.30;1.00;;;;;;5090984;28;20447;-71
2024/01/04 04:25:43;;;;;;;1.30;1.17;;;8.30;1.00;;;;;;5092188;27;20466;-72
2024/01/04 04:28:12;;;;;;;2.10;1.53;;;8.30;1.00;;;;;;5088129;27;20466;-72
2024/01/04 04:30:39;;;;;;;2.07;1.00;;;8.30;1.00;;;;;;5092878;28;21305;-73
2024/01/04 04:33:06;;;;;;;2.67;0.90;;;8.30;1.00;;;;;;5092104;28;21235;-71
2024/01/04 04:35:33;;;;;;;1.63;0.90;;;8.30;1.00;;;;;;5092454;28;20459;-71
2024/01/04 04:38:01;;;;;;;3.00;0.83;;;8.30;1.00;;;;;;5092242;28;20937;-72
2024/01/04 04:40:29;;;;;;;1.10;1.00;;;8.30;1.00;;;;;;5092545;28;20551;-71
2024/01/04 04:42:56;;;;;;;1.17;0.70;;;8.30;1.00;;;;;;5091355;28;20415;-71
2024/01/04 04:45:23;;;;;;;1.00;0.90;;;8.20;1.00;;;;;;5090825;27;20466;-72
2024/01/04 04:47:50;;;;;;;1.73;1.23;;;8.20;1.00;;;;;;5090931;28;20541;-72
2024/01/04 04:50:17;;;;;;;3.23;1.40;;;8.20;1.00;;;;;;5089947;27;20462;-71
2024/01/04 04:52:44;;;;;;;1.60;1.23;;;8.20;1.00;;;;;;5091374;27;20945;-72
2024/01/04 04:55:12;;;;;;;1.50;1.30;;;8.30;1.00;;;;;;5082721;27;20478;-70
2024/01/04 04:57:41;;;;;;;3.67;1.00;;;8.30;1.00;;;;;;5082784;27;20473;-70
2024/01/04 05:00:10;;;;;;;1.60;1.10;;;8.30;1.00;;;;;;5095440;27;20526;-70
2024/01/04 05:02:38;;;;;;;2.83;1.40;;;8.30;1.00;;;;;;5093693;28;20973;-69
2024/01/04 05:05:05;;;;;;;1.70;1.57;;;8.30;1.00;;;;;;5091704;27;20485;-69
2024/01/04 05:07:32;;;;;;;1.30;1.20;;;8.30;1.00;;;;;;5095105;27;20450;-69
2024/01/04 05:09:59;;;;;;;2.30;1.57;;;8.30;1.00;;;;;;5078961;27;20455;-69
2024/01/04 05:12:31;;;;;;;2.23;1.50;;;8.30;1.00;;;;;;5080928;27;20540;-69
2024/01/04 05:14:59;;;;;;;3.10;1.47;;;8.30;1.00;;;;;;5087780;27;20473;-68
2024/01/04 05:17:26;;;;;;;3.70;1.47;;;8.40;1.00;;;;;;5093118;27;20489;-69
2024/01/04 05:19:53;;;;;;;1.67;1.43;;;8.40;1.00;;;;;;5089737;27;20513;-69
2024/01/04 05:22:20;;;;;;;3.90;1.57;;;8.40;1.00;;;;;;5083492;28;20542;-70
2024/01/04 05:24:47;;;;;;;2.03;1.40;;;8.40;1.00;;;;;;5094330;28;20490;-67
2024/01/04 05:27:14;;;;;;;1.70;1.60;;;8.40;1.00;;;;;;5093587;27;20524;-69
2024/01/04 05:29:41;;;;;;;3.27;1.47;;;8.30;1.00;;;;;;5094415;27;20459;-67
2024/01/04 05:32:10;;;;;;;3.10;1.83;;;8.30;1.00;;;;;;5097082;27;20525;-71
2024/01/04 05:34:36;;;;;;;3.37;2.23;;;8.30;1.00;;;;;;5092615;28;21284;-68
2024/01/04 05:37:04;;;;;;;1.90;1.70;;;8.30;1.00;;;;;;5094006;28;20466;-69
2024/01/04 05:39:31;;;;;;;2.00;1.53;;;8.30;1.00;;;;;;5093076;27;20509;-69
2024/01/04 05:41:58;;;;;;;5.70;3.60;;;8.30;1.00;;;;;;5086093;27;20481;-71
2024/01/04 05:44:25;;;;;;;2.30;2.10;;;8.30;1.00;;;;;;5083055;28;21114;-68
2024/01/04 05:46:53;;;;;;;2.83;1.90;;;8.40;1.00;;;;;;5094436;27;20537;-69
2024/01/04 05:49:21;;;;;;;3.33;2.10;;;8.30;1.00;;;;;;5094571;28;20553;-67
2024/01/04 05:51:48;;;;;;;3.00;1.90;;;8.30;1.00;;;;;;5093204;27;20663;-69
2024/01/04 05:54:15;;;;;;;2.50;1.63;;;8.30;1.00;;;;;;5094716;27;20474;-68
2024/01/04 05:56:44;;;;;;;2.10;1.93;;;8.30;1.00;;;;;;5094104;27;20469;-68
2024/01/04 05:59:11;;;;;;;2.03;1.83;;;8.20;1.00;;;;;;5093439;28;20564;-68
2024/01/04 06:01:39;;;;;;;3.30;2.20;;;8.20;1.00;;;;;;5093389;28;21307;-68
2024/01/04 06:04:06;;;;;;;2.93;2.17;;;8.20;1.00;;;;;;5094650;28;20596;-70
2024/01/04 06:06:34;;;;;;;3.40;2.35;;;8.30;1.00;;;;;;5092649;28;20463;-70
2024/01/04 06:12:23;;;;;;;4.30;2.50;;;8.20;1.00;;;;;;5090688;28;20447;-69
2024/01/04 06:14:51;;;;;;;2.57;2.10;;;8.20;1.00;;;;;;5092938;28;20553;-70
2024/01/04 06:17:19;;;;;;;2.47;1.73;;;8.20;1.00;;;;;;5091688;27;20449;-70
2024/01/04 06:19:46;;;;;;;1.90;1.60;;;8.20;1.00;;;;;;5094122;28;21020;-70
2024/01/04 06:22:14;;;;;;;1.70;1.60;;;8.20;1.00;;;;;;5093867;28;20471;-71
2024/01/04 06:24:41;;;;;;;2.70;1.90;;;8.20;1.00;;;;;;5091729;28;20481;-71
2024/01/04 06:27:08;;;;;;;4.67;1.80;;;8.20;1.00;;;;;;5089174;28;20465;-70
2024/01/04 06:29:35;;;;;;;2.60;1.70;;;8.20;1.00;;;;;;5088759;27;21025;-71
2024/01/04 06:32:02;;;;;;;1.90;1.80;;;8.20;1.00;;;;;;5074654;28;20839;-72
2024/01/04 06:34:29;;;;;;;2.10;1.50;;;8.10;1.00;;;;;;5089910;27;20471;-70
2024/01/04 06:36:56;;;;;;;1.95;1.20;;;8.10;1.00;;;;;;5088081;28;20526;-71
2024/01/04 06:39:24;;;;;;;2.47;1.92;;;8.00;1.00;;;;;;5071113;28;20248;-70
2024/01/04 06:41:51;;;;;;;1.73;1.63;;;8.00;1.00;;;;;;5074679;27;20245;-71
2024/01/04 06:44:18;;;;;;;3.50;1.70;;;8.00;1.00;;;;;;5090251;28;20481;-71
2024/01/04 06:46:45;;;;;;;3.80;1.80;;;8.00;1.00;;;;;;5092349;28;21009;-71
2024/01/04 06:49:12;;;;;;;2.20;1.60;;;8.00;1.00;;;;;;5084950;27;20510;-72
2024/01/04 06:51:39;;;;;;;1.50;1.40;;;8.00;1.00;;;;;;5086385;27;20567;-73
2024/01/04 06:54:06;;;;;;;6.30;3.15;;;7.90;1.00;;;;;;5079377;28;20474;-71
2024/01/04 06:56:34;;;;;;;1.30;1.20;;;7.80;1.00;;;;;;5089914;27;21007;-71
2024/01/04 06:59:03;;;;;;;1.33;0.80;;;7.80;1.00;;;;;;5090436;27;20544;-73
2024/01/04 07:01:31;;;;;;;1.63;1.00;;;7.80;1.00;;;;;;5090630;27;20453;-71
2024/01/04 07:03:57;;;;;;;1.27;0.90;;;7.70;1.00;;;;;;5084360;28;20945;-71
2024/01/04 07:06:24;;;;;;;2.45;1.50;;;7.70;1.00;;;;;;5089092;28;20443;-71
2024/01/04 07:08:51;;;;;;;1.17;1.05;;;7.70;1.00;;;;;;5090571;28;20330;-71
2024/01/04 07:11:18;;;;;;;1.53;1.30;;;7.70;1.00;;;;;;5089356;27;20845;-71
2024/01/04 07:13:47;;;;;;;2.17;1.50;;;7.80;1.00;;;;;;5089906;28;20467;-73
2024/01/04 07:16:16;;;;;;;1.97;1.77;;;7.70;1.00;;;;;;5089137;27;20478;-71
2024/01/04 07:18:43;;;;;;;1.70;1.40;;;7.70;1.00;;;;;;5093345;27;20463;-71
2024/01/04 07:21:10;;;;;;;2.70;1.70;;;7.70;1.00;;;;;;5089346;28;20973;-71
2024/01/04 07:23:37;;;;;;;1.80;0.98;;;7.70;1.00;;;;;;5090249;28;20462;-73
2024/01/04 07:26:04;;;;;;;2.75;1.00;;;7.70;1.00;;;;;;5090657;27;21077;-72
2024/01/04 07:28:31;;;;;;;0.80;0.70;;;7.60;1.00;;;;;;5091675;28;20328;-72
2024/01/04 07:30:59;;;;;;;1.40;0.85;;;7.40;1.00;;;;;;5085516;27;20323;-72
2024/01/04 07:33:27;;;;;;;2.65;0.73;;;7.10;1.00;;;;;;5083717;28;20296;-73
2024/01/04 07:35:54;;;;;;;1.88;0.75;;;6.90;1.00;;;;;;5085186;27;20260;-73
2024/01/04 07:38:21;;;;;;;0.70;0.47;;;6.60;1.00;;;;;;5067763;28;20251;-72
2024/01/04 07:40:48;;;;;;;1.25;0.60;;;6.50;1.00;;;;;;5071979;28;20244;-73
2024/01/04 07:43:15;;;;;;;1.88;0.70;;;6.40;1.00;;;;;;5071903;28;20237;-71
2024/01/04 07:45:42;;;;;;;1.00;0.70;;;6.30;1.00;;;;;;5072600;28;20241;-72
2024/01/04 07:48:11;;;;;;;2.97;0.70;;;6.30;1.00;;;;;;5071159;27;21040;-72
2024/01/04 07:50:39;;;;;;;1.20;0.60;;;6.20;1.00;;;;;;5089968;27;20232;-72
2024/01/04 07:53:06;;;;;;;1.40;0.50;;;6.20;1.00;;;;;;5071711;28;20737;-77
2024/01/04 07:55:33;;;;;;;1.08;0.68;;;6.10;1.00;;;;;;5079440;27;20242;-75
2024/01/04 07:58:00;;;;;;;2.35;1.38;;;6.10;1.00;;;;;;5090977;28;20275;-75
2024/01/04 08:00:27;;;;;;;1.88;1.13;;;6.10;1.00;;;;;;5078457;28;20240;-75
2024/01/04 08:02:54;;;;;;;1.52;0.80;;;6.10;1.00;;;;;;5070290;28;20334;-74
2024/01/04 08:05:22;;;;;;;0.95;0.82;;;6.10;1.00;;;;;;5071186;28;20324;-74
2024/01/04 08:07:49;;;;;;;0.80;0.70;;;6.10;1.00;;;;;;5072985;28;20340;-75
2024/01/04 08:10:19;;;;;;;1.02;0.85;;;6.10;1.00;;;;;;5070130;28;20234;-75
2024/01/04 08:12:46;;;;;;;1.27;0.90;;;6.10;1.00;;;;;;5074421;28;20319;-72
2024/01/04 08:15:13;;;;;;;2.17;1.20;;;6.10;1.00;;;;;;5088567;28;20367;-73
2024/01/04 08:17:41;;;;;;;1.50;1.10;;;6.00;1.00;;;;;;5088179;28;20268;-72
2024/01/04 08:20:09;;;;;;;1.27;1.00;;;6.00;1.00;;;;;;5069889;27;20743;-73
2024/01/04 08:22:38;;;;;;;1.40;1.00;;;6.00;1.00;;;;;;5085884;27;20239;-72
2024/01/04 08:25:06;;;;;;;1.30;0.68;;;5.90;1.00;;;;;;5083449;28;20237;-70
2024/01/04 08:27:33;;;;;;;0.90;0.70;;;5.90;1.00;;;;;;5090819;28;20399;-69
2024/01/04 08:30:00;;;;;;;1.42;0.80;;;5.90;1.00;;;;;;5092897;27;20232;-69
2024/01/04 08:32:30;;;;;;;2.88;1.60;;;5.80;1.00;;;;;;5093368;27;20243;-68
2024/01/04 08:35:01;;;;;;;1.08;0.98;;;5.80;1.00;;;;;;5094164;27;20240;-69
2024/01/04 08:37:28;;;;;;;1.05;0.80;;;5.90;1.00;;;;;;5094732;28;20231;-68
2024/01/04 08:39:56;;;;;;;2.22;0.95;;;5.90;1.00;;;;;;5095510;28;20279;-70
2024/01/04 08:42:23;;;;;;;2.75;1.10;;;5.80;1.00;;;;;;5094182;27;20244;-72
2024/01/04 08:44:50;;;;;;;1.38;1.23;;;5.80;1.00;;;;;;5096112;27;20314;-69
2024/01/04 08:47:17;;;;;;;3.28;1.10;;;5.80;1.00;;;;;;5092985;27;20258;-74
2024/01/04 08:49:44;;;;;;;2.47;1.30;;;5.80;1.00;;;;;;5095742;27;20274;-75
2024/01/04 08:52:11;;;;;;;2.45;1.30;;;5.80;1.00;;;;;;5088398;27;20241;-74
2024/01/04 08:54:39;;;;;;;1.60;1.20;;;5.80;1.00;;;;;;5069579;28;20234;-75
2024/01/04 08:57:07;;;;;;;1.55;1.30;;;5.80;1.00;;;;;;5080344;28;20271;-74
2024/01/04 08:59:34;;;;;;;2.22;1.40;;;5.80;1.00;;;;;;5093179;27;20242;-76
2024/01/04 09:02:04;;;;;;;2.08;1.75;;;5.80;1.00;;;;;;5087359;27;20313;-75
2024/01/04 09:04:34;;;;;;;2.85;1.65;;;5.70;1.00;;;;;;5092364;27;20235;-74
2024/01/04 09:07:01;;;;;;;2.25;1.50;;;5.70;1.00;;;;;;5088820;28;20756;-74
2024/01/04 09:09:29;;;;;;;4.35;1.55;;;5.80;1.00;;;;;;5075580;27;20249;-75
2024/01/04 09:11:56;;;;;;;1.90;1.10;;;5.70;1.00;;;;;;5083152;28;20263;-75
2024/01/04 09:14:27;;;;;;;1.60;1.40;;;5.60;1.00;;;;;;5075003;27;20240;-76
2024/01/04 09:16:54;;;;;;;1.00;0.85;;;5.60;1.00;;;;;;5084769;28;20240;-74
2024/01/04 09:19:22;;;;;;;2.28;0.80;;;5.40;1.00;;;;;;5094549;27;20251;-75
2024/01/04 09:21:50;;;;;;;0.90;0.80;;;5.30;1.00;;;;;;5095468;27;20268;-75
2024/01/04 09:24:20;;;;;;;1.00;0.70;;;5.30;1.00;;;;;;5091704;27;20251;-74
2024/01/04 09:26:47;;;;;;;1.05;0.75;;;5.10;1.00;;;;;;5091442;27;20265;-75
2024/01/04 09:29:16;;;;;;;2.17;0.90;;;5.00;1.00;;;;;;5085676;27;20237;-77
2024/01/04 09:31:44;;;;;;;1.30;0.80;;;5.00;1.00;;;;;;5080177;27;20317;-75
2024/01/04 09:34:11;;;;;;;1.95;0.90;;;5.00;1.00;;;;;;5091655;27;20268;-75
2024/01/04 09:36:38;;;;;;;1.65;1.10;;;4.80;1.00;;;;;;5090443;27;20232;-74
2024/01/04 09:39:05;;;;;;;0.82;0.63;;;4.80;1.00;;;;;;5089324;27;20720;-71
2024/01/04 09:41:34;;;;;;;1.02;0.70;;;4.80;1.00;;;;;;5090931;27;20236;-72
2024/01/04 09:44:03;;;;;;;1.13;1.02;;;4.70;1.00;;;;;;5091116;27;20236;-72
2024/01/04 09:46:34;;;;;;;1.10;1.00;;;4.80;1.00;;;;;;5075134;27;20233;-73
2024/01/04 09:49:03;;;;;;;1.15;1.00;;;4.80;1.00;;;;;;5092610;28;20840;-72
2024/01/04 09:51:33;;;;;;;1.48;1.38;;;4.80;1.00;;;;;;5088026;27;21079;-73
2024/01/04 09:54:01;;;;;;;2.30;1.30;;;4.80;1.00;;;;;;5071358;28;20240;-76
2024/01/04 09:56:29;;;;;;;1.02;0.93;;;4.80;1.00;;;;;;5079624;27;20245;-73
2024/01/04 09:58:56;;;;;;;1.30;0.90;;;4.70;1.00;;;;;;5084427;27;20232;-73
2024/01/04 10:01:29;;;;;;;1.58;0.90;;;4.60;1.00;;;;;;5075948;27;21104;-73
2024/01/04 10:03:59;;;;;;;1.42;0.93;;;4.50;1.00;;;;;;5091628;27;20236;-73
2024/01/04 10:06:31;;;;;;;1.30;1.17;;;4.50;1.00;;;;;;5082508;27;20332;-73
2024/01/04 10:09:05;;;;;;;1.20;0.70;;;4.50;1.00;;;;;;5070620;28;20245;-73
2024/01/04 10:11:38;;;;;;;1.40;1.30;;;4.60;1.00;;;;;;5071014;28;20232;-72
2024/01/04 10:14:06;;;;;;;1.67;1.13;;;4.50;1.00;;;;;;5073256;28;20272;-73
2024/01/04 10:16:34;;;;;;;2.53;1.17;;;4.50;1.00;;;;;;5071174;28;20318;-74
2024/01/04 10:19:03;;;;;;;1.27;1.10;;;4.50;1.00;;;;;;5084855;28;20344;-74
2024/01/04 10:21:33;;;;;;;1.80;1.13;;;4.50;1.00;;;;;;5072233;27;20264;-72
2024/01/04 10:24:01;;;;;;;2.15;1.65;;;4.40;1.00;;;;;;5077732;27;20267;-72
2024/01/04 10:26:28;;;;;;;1.20;0.70;;;4.40;1.00;;;;;;5079698;27;20245;-73
2024/01/04 10:28:59;;;;;;;1.05;0.90;;;4.30;1.00;;;;;;5072743;27;20896;-72
2024/01/04 10:31:26;;;;;;;0.82;0.70;;;4.30;1.00;;;;;;5082195;27;20240;-73
2024/01/04 10:34:00;;;;;;;1.00;0.75;;;4.20;1.00;;;;;;5075151;28;20273;-74
2024/01/04 10:36:29;;;;;;;2.55;1.08;;;4.20;1.00;;;;;;5090132;28;20712;-74
2024/01/04 10:38:59;;;;;;;1.45;0.77;;;4.20;1.00;;;;;;5083845;27;20229;-74
2024/01/04 10:41:28;;;;;;;2.00;0.95;;;4.20;1.00;;;;;;5073703;28;20775;-73
2024/01/04 10:44:05;;;;;;;1.60;1.02;;;4.20;1.00;;;;;;5091535;27;20236;-72
2024/01/04 10:46:33;;;;;;;1.17;0.90;;;4.10;1.00;;;;;;5091304;27;20632;-72
2024/01/04 10:49:00;;;;;;;3.25;0.80;;;4.10;1.00;;;;;;5091454;28;21049;-71
2024/01/04 10:51:30;;;;;;;1.67;0.80;;;4.20;1.00;;;;;;5072285;28;20314;-69
2024/01/04 10:54:01;;;;;;;1.13;0.95;;;4.20;1.00;;;;;;5077282;28;20534;-71
2024/01/04 10:56:30;;;;;;;0.93;0.80;;;4.20;1.00;;;;;;5078649;27;20279;-72
2024/01/04 10:58:57;;;;;;;1.00;0.85;;;4.30;1.00;;;;;;5085873;27;20243;-70
2024/01/04 11:01:25;;;;;;;1.63;1.20;;;4.30;1.00;;;;;;5090990;27;20621;-72
2024/01/04 11:03:55;;;;;;;2.58;1.15;;;4.20;1.00;;;;;;5087800;27;20256;-72
2024/01/04 11:06:23;;;;;;;1.90;1.00;;;4.20;1.00;;;;;;5070379;27;21125;-71
2024/01/04 11:08:51;;;;;;;0.85;0.85;;;4.30;1.00;;;;;;5076122;27;20232;-73
2024/01/04 11:11:20;;;;;;;1.20;1.10;;;4.30;1.00;;;;;;5089810;28;20232;-74
2024/01/04 11:13:47;;;;;;;1.05;0.80;;;4.30;1.00;;;;;;5090257;27;20813;-71
2024/01/04 11:16:27;;;;;;;1.02;0.73;;;4.40;1.00;;;;;;5088391;27;20302;-74
2024/01/04 11:19:05;;;;;;;1.02;0.82;;;4.40;1.00;;;;;;5092151;28;20236;-79
2024/01/04 11:21:55;;;;;;;0.95;0.73;;;4.30;1.00;;;;;;5089768;27;20247;-71
2024/01/04 11:24:34;;;;;;;0.90;0.90;;;4.40;1.00;;;;;;5088462;27;20972;-71
2024/01/04 11:27:05;;;;;;;1.50;0.85;;;4.40;1.00;;;;;;5087400;27;20251;-73
2024/01/04 11:29:33;;;;;;;1.80;1.10;;;4.40;1.00;;;;;;5090585;28;20296;-75
2024/01/04 11:32:00;;;;;;;2.45;1.52;;;4.40;1.00;;;;;;5092716;28;20323;-73
2024/01/04 11:34:27;;;;;;;2.10;1.10;;;4.50;1.00;;;;;;5088263;27;20327;-73
2024/01/04 11:37:10;;;;;;;1.13;0.85;;;4.50;1.00;;;;;;5092224;27;20591;-73
2024/01/04 11:39:55;;;;;;;1.50;1.00;;;4.50;1.00;;;;;;5091412;28;20240;-72
2024/01/04 11:42:33;;;;;;;1.70;1.40;;;4.60;1.00;;;;;;5090936;27;20313;-73
2024/01/04 11:45:04;;;;;;;1.42;1.33;;;4.50;1.00;;;;;;5089583;27;20237;-74
2024/01/04 11:47:36;;;;;;;2.28;1.70;;;4.60;1.00;;;;;;5081450;27;20243;-74
2024/01/04 11:50:12;;;;;;;1.35;0.90;;;4.60;1.00;;;;;;5081997;28;20240;-73
2024/01/04 11:52:39;;;;;;;1.75;1.08;;;4.60;1.00;;;;;;5088314;27;20335;-74
2024/01/04 11:55:07;;;;;;;1.45;1.15;;;4.70;1.00;;;;;;5067275;28;20382;-72
2024/01/04 11:57:36;;;;;;;1.80;1.50;;;4.80;1.00;;;;;;5091213;27;21172;-72
2024/01/04 12:00:13;;;;;;;1.25;1.05;;;4.70;1.00;;;;;;5093155;27;20259;-73
2024/01/04 12:02:41;;;;;;;0.82;0.80;;;4.60;1.00;;;;;;5083604;27;20236;-71
2024/01/04 12:05:08;;;;;;;1.05;0.95;;;4.60;1.00;;;;;;5093575;28;20231;-71
2024/01/04 12:07:37;;;;;;;2.90;2.13;;;4.50;1.00;;;;;;5084396;27;20315;-72
2024/01/04 12:10:06;;;;;;;1.10;1.00;;;4.40;1.00;;;;;;5091194;27;20969;-72
2024/01/04 12:12:33;;;;;;;1.02;0.90;;;4.30;1.00;;;;;;5091765;27;20731;-71
2024/01/04 12:15:03;;;;;;;1.58;1.48;;;4.30;1.00;;;;;;5090221;27;20978;-73
2024/01/04 12:17:32;;;;;;;1.20;1.10;;;4.20;1.00;;;;;;5084068;27;20244;-72
2024/01/04 12:20:00;;;;;;;1.38;1.08;;;4.20;1.00;;;;;;5077185;28;20242;-68
2024/01/04 12:22:27;;;;;;;1.30;1.20;;;4.00;1.00;;;;;;5080475;28;20253;-74
2024/01/04 12:24:55;;;;;;;1.48;1.38;;;4.00;1.00;;;;;;5076172;28;20345;-69
2024/01/04 12:27:24;;;;;;;2.75;1.30;;;3.90;1.00;;;;;;5090109;27;20245;-69
2024/01/04 12:29:51;;;;;;;1.73;1.60;;;3.90;1.00;;;;;;5092649;27;20261;-70
2024/01/04 12:32:23;;;;;;;1.73;1.25;;;3.90;1.00;;;;;;5091795;28;20750;-75
2024/01/04 12:34:50;;;;;;;1.58;1.40;;;4.00;1.00;;;;;;5070639;27;20319;-72
2024/01/04 12:37:18;;;;;;;2.28;1.30;;;4.10;1.00;;;;;;5078422;28;20271;-70
2024/01/04 12:39:45;;;;;;;2.35;2.03;;;4.10;1.00;;;;;;5070669;28;20708;-70
2024/01/04 12:42:13;;;;;;;1.63;1.52;;;4.10;1.00;;;;;;5080285;28;20240;-70
2024/01/04 12:44:40;;;;;;;2.53;2.15;;;4.10;1.00;;;;;;5071946;27;20267;-70
2024/01/04 12:47:09;;;;;;;2.00;1.60;;;4.20;1.00;;;;;;5076333;28;20335;-72
2024/01/04 12:49:40;;;;;;;2.25;1.67;;;4.20;1.00;;;;;;5077666;27;20306;-74
2024/01/04 12:52:12;;;;;;;2.63;2.05;;;4.20;1.00;;;;;;5080505;28;20317;-76
2024/01/04 12:54:40;;;;;;;2.15;1.80;;;4.20;1.00;;;;;;5088607;28;20232;-76
2024/01/04 12:57:07;;;;;;;1.73;1.40;;;4.10;1.00;;;;;;5088358;28;20236;-76
2024/01/04 12:59:34;;;;;;;2.50;2.10;;;4.00;1.00;;;;;;5089327;28;20282;-75
2024/01/04 13:02:01;;;;;;;1.85;1.75;;;4.10;1.00;;;;;;5087066;27;20236;-77
2024/01/04 13:04:29;;;;;;;1.75;1.63;;;4.10;1.00;;;;;;5089856;27;20243;-76
2024/01/04 13:06:57;;;;;;;3.90;3.15;;;4.00;1.00;;;;;;5091606;27;20238;-74
2024/01/04 13:09:24;;;;;;;1.75;1.65;;;4.00;1.00;;;;;;5091266;28;20262;-77
2024/01/04 13:11:51;;;;;;;1.75;1.65;;;4.00;1.00;;;;;;5070275;28;20236;-76
2024/01/04 13:14:18;;;;;;;2.10;1.80;;;3.90;1.00;;;;;;5089863;27;20240;-76